sensor_id;sensor_type;location;lat;lon;timestamp;P1;durP1;ratioP1;P2;durP2;ratioP2
75441;SDS011;64019;48.312;14.226;2023-02-21T00:05:48;5.37;;;2.77;;
75441;SDS011;64019;48.312;14.226;2023-02-21T00:08:32;4.53;;;2.57;;
75441;SDS011;64019;48.312;14.226;2023-02-21T00:11:16;6.67;;;2.63;;
75441;SDS011;64019;48.312;14.226;2023-02-21T00:14:00;4.13;;;2.63;;
75441;SDS011;64019;48.312;14.226;2023-02-21T00:16:45;4.73;;;2.60;;
75441;SDS011;64019;48.312;14.226;2023-02-21T00:19:29;4.50;;;2.30;;
75441;SDS011;64019;48.312;14.226;2023-02-21T00:22:13;5.13;;;2.60;;
75441;SDS011;64019;48.312;14.226;2023-02-21T00:24:57;5.00;;;2.60;;
75441;SDS011;64019;48.312;14.226;2023-02-21T00:27:41;5.63;;;2.50;;
75441;SDS011;64019;48.312;14.226;2023-02-21T00:30:25;5.27;;;2.50;;
75441;SDS011;64019;48.312;14.226;2023-02-21T00:33:09;5.20;;;2.53;;
75441;SDS011;64019;48.312;14.226;2023-02-21T00:35:53;8.53;;;2.87;;
75441;SDS011;64019;48.312;14.226;2023-02-21T00:38:37;4.80;;;2.67;;
75441;SDS011;64019;48.312;14.226;2023-02-21T00:41:21;3.13;;;2.43;;
75441;SDS011;64019;48.312;14.226;2023-02-21T00:44:05;3.80;;;2.57;;
75441;SDS011;64019;48.312;14.226;2023-02-21T00:46:49;10.27;;;2.90;;
75441;SDS011;64019;48.312;14.226;2023-02-21T00:49:33;4.20;;;2.47;;
75441;SDS011;64019;48.312;14.226;2023-02-21T00:52:17;3.33;;;2.27;;
75441;SDS011;64019;48.312;14.226;2023-02-21T00:55:01;5.70;;;2.57;;
75441;SDS011;64019;48.312;14.226;2023-02-21T00:57:45;3.83;;;2.37;;
75441;SDS011;64019;48.312;14.226;2023-02-21T01:00:29;4.43;;;2.30;;
75441;SDS011;64019;48.312;14.226;2023-02-21T01:03:13;3.30;;;2.20;;
75441;SDS011;64019;48.312;14.226;2023-02-21T01:05:57;4.10;;;2.03;;
75441;SDS011;64019;48.312;14.226;2023-02-21T01:08:42;3.30;;;2.20;;
75441;SDS011;64019;48.312;14.226;2023-02-21T01:11:28;5.20;;;2.40;;
75441;SDS011;64019;48.312;14.226;2023-02-21T01:14:13;4.03;;;2.30;;
75441;SDS011;64019;48.312;14.226;2023-02-21T01:16:58;5.70;;;2.10;;
75441;SDS011;64019;48.312;14.226;2023-02-21T01:19:42;5.50;;;2.67;;
75441;SDS011;64019;48.312;14.226;2023-02-21T01:22:26;5.87;;;2.20;;
75441;SDS011;64019;48.312;14.226;2023-02-21T01:25:11;2.97;;;2.37;;
75441;SDS011;64019;48.312;14.226;2023-02-21T01:27:55;4.67;;;2.00;;
75441;SDS011;64019;48.312;14.226;2023-02-21T01:30:39;2.33;;;2.10;;
75441;SDS011;64019;48.312;14.226;2023-02-21T01:33:23;3.43;;;2.23;;
75441;SDS011;64019;48.312;14.226;2023-02-21T01:36:07;4.73;;;2.10;;
75441;SDS011;64019;48.312;14.226;2023-02-21T01:38:52;4.93;;;2.13;;
75441;SDS011;64019;48.312;14.226;2023-02-21T01:41:37;5.03;;;2.37;;
75441;SDS011;64019;48.312;14.226;2023-02-21T01:44:30;7.90;;;2.40;;
75441;SDS011;64019;48.312;14.226;2023-02-21T01:47:17;8.33;;;2.43;;
75441;SDS011;64019;48.312;14.226;2023-02-21T01:50:05;5.13;;;2.53;;
75441;SDS011;64019;48.312;14.226;2023-02-21T01:53:03;3.60;;;2.30;;
75441;SDS011;64019;48.312;14.226;2023-02-21T01:55:50;3.90;;;2.17;;
75441;SDS011;64019;48.312;14.226;2023-02-21T01:58:34;5.00;;;2.47;;
75441;SDS011;64019;48.312;14.226;2023-02-21T02:01:22;5.17;;;2.37;;
75441;SDS011;64019;48.312;14.226;2023-02-21T02:04:15;4.50;;;2.17;;
75441;SDS011;64019;48.312;14.226;2023-02-21T02:06:59;4.53;;;1.97;;
75441;SDS011;64019;48.312;14.226;2023-02-21T02:09:44;8.13;;;2.60;;
75441;SDS011;64019;48.312;14.226;2023-02-21T02:17:53;5.67;;;2.50;;
75441;SDS011;64019;48.312;14.226;2023-02-21T02:28:42;4.73;;;2.07;;
75441;SDS011;64019;48.312;14.226;2023-02-21T02:34:09;3.43;;;2.20;;
75441;SDS011;64019;48.312;14.226;2023-02-21T02:36:45;2.93;;;1.87;;
75441;SDS011;64019;48.312;14.226;2023-02-21T02:39:23;3.77;;;2.10;;
75441;SDS011;64019;48.312;14.226;2023-02-21T02:42:10;7.43;;;2.07;;
75441;SDS011;64019;48.312;14.226;2023-02-21T02:44:45;4.90;;;2.27;;
75441;SDS011;64019;48.312;14.226;2023-02-21T02:47:24;5.00;;;2.30;;
75441;SDS011;64019;48.312;14.226;2023-02-21T02:49:55;2.40;;;1.90;;
75441;SDS011;64019;48.312;14.226;2023-02-21T02:52:23;7.23;;;2.30;;
75441;SDS011;64019;48.312;14.226;2023-02-21T02:54:58;3.83;;;2.30;;
75441;SDS011;64019;48.312;14.226;2023-02-21T02:57:26;3.60;;;1.90;;
75441;SDS011;64019;48.312;14.226;2023-02-21T03:00:02;4.77;;;1.90;;
75441;SDS011;64019;48.312;14.226;2023-02-21T03:02:41;1.67;;;1.57;;
75441;SDS011;64019;48.312;14.226;2023-02-21T03:11:08;5.10;;;1.90;;
75441;SDS011;64019;48.312;14.226;2023-02-21T03:16:20;4.43;;;2.00;;
75441;SDS011;64019;48.312;14.226;2023-02-21T03:21:56;4.33;;;2.10;;
75441;SDS011;64019;48.312;14.226;2023-02-21T03:24:28;8.70;;;2.20;;
75441;SDS011;64019;48.312;14.226;2023-02-21T03:27:02;3.67;;;2.00;;
75441;SDS011;64019;48.312;14.226;2023-02-21T03:29:31;4.67;;;1.90;;
75441;SDS011;64019;48.312;14.226;2023-02-21T03:32:19;2.97;;;1.90;;
75441;SDS011;64019;48.312;14.226;2023-02-21T03:34:51;3.73;;;1.87;;
75441;SDS011;64019;48.312;14.226;2023-02-21T03:37:28;4.40;;;1.97;;
75441;SDS011;64019;48.312;14.226;2023-02-21T03:39:57;4.80;;;1.97;;
75441;SDS011;64019;48.312;14.226;2023-02-21T03:42:23;4.10;;;2.07;;
75441;SDS011;64019;48.312;14.226;2023-02-21T03:44:49;6.33;;;2.27;;
75441;SDS011;64019;48.312;14.226;2023-02-21T03:47:14;2.63;;;2.03;;
75441;SDS011;64019;48.312;14.226;2023-02-21T03:49:40;4.70;;;1.97;;
75441;SDS011;64019;48.312;14.226;2023-02-21T03:52:06;6.90;;;2.23;;
75441;SDS011;64019;48.312;14.226;2023-02-21T03:54:33;5.93;;;2.17;;
75441;SDS011;64019;48.312;14.226;2023-02-21T03:56:59;3.93;;;2.53;;
75441;SDS011;64019;48.312;14.226;2023-02-21T03:59:24;4.67;;;2.23;;
75441;SDS011;64019;48.312;14.226;2023-02-21T04:01:50;5.50;;;2.10;;
75441;SDS011;64019;48.312;14.226;2023-02-21T04:04:16;6.03;;;1.77;;
75441;SDS011;64019;48.312;14.226;2023-02-21T04:06:41;3.83;;;2.40;;
75441;SDS011;64019;48.312;14.226;2023-02-21T04:09:07;4.83;;;2.30;;
75441;SDS011;64019;48.312;14.226;2023-02-21T04:11:32;3.73;;;2.17;;
75441;SDS011;64019;48.312;14.226;2023-02-21T04:13:58;3.83;;;2.20;;
75441;SDS011;64019;48.312;14.226;2023-02-21T04:16:24;5.33;;;2.07;;
75441;SDS011;64019;48.312;14.226;2023-02-21T04:18:49;2.53;;;2.00;;
75441;SDS011;64019;48.312;14.226;2023-02-21T04:21:16;3.67;;;2.00;;
75441;SDS011;64019;48.312;14.226;2023-02-21T04:23:42;4.40;;;2.40;;
75441;SDS011;64019;48.312;14.226;2023-02-21T04:26:08;4.13;;;2.30;;
75441;SDS011;64019;48.312;14.226;2023-02-21T04:28:33;5.43;;;2.40;;
75441;SDS011;64019;48.312;14.226;2023-02-21T04:30:59;3.47;;;2.00;;
75441;SDS011;64019;48.312;14.226;2023-02-21T04:33:25;3.73;;;2.27;;
75441;SDS011;64019;48.312;14.226;2023-02-21T04:35:50;8.23;;;2.43;;
75441;SDS011;64019;48.312;14.226;2023-02-21T04:38:16;4.13;;;2.40;;
75441;SDS011;64019;48.312;14.226;2023-02-21T04:40:42;4.23;;;2.13;;
75441;SDS011;64019;48.312;14.226;2023-02-21T04:43:07;5.10;;;2.40;;
75441;SDS011;64019;48.312;14.226;2023-02-21T04:45:33;2.93;;;1.87;;
75441;SDS011;64019;48.312;14.226;2023-02-21T04:47:58;6.00;;;1.77;;
75441;SDS011;64019;48.312;14.226;2023-02-21T04:50:24;3.57;;;1.83;;
75441;SDS011;64019;48.312;14.226;2023-02-21T04:52:50;4.50;;;1.90;;
75441;SDS011;64019;48.312;14.226;2023-02-21T04:55:15;3.33;;;2.07;;
75441;SDS011;64019;48.312;14.226;2023-02-21T04:57:41;3.17;;;1.90;;
75441;SDS011;64019;48.312;14.226;2023-02-21T05:00:07;4.33;;;1.73;;
75441;SDS011;64019;48.312;14.226;2023-02-21T05:02:34;6.93;;;1.80;;
75441;SDS011;64019;48.312;14.226;2023-02-21T05:05:00;3.13;;;1.97;;
75441;SDS011;64019;48.312;14.226;2023-02-21T05:07:26;4.27;;;2.13;;
75441;SDS011;64019;48.312;14.226;2023-02-21T05:09:51;7.23;;;2.03;;
75441;SDS011;64019;48.312;14.226;2023-02-21T05:12:17;4.73;;;2.03;;
75441;SDS011;64019;48.312;14.226;2023-02-21T05:14:42;3.30;;;1.90;;
75441;SDS011;64019;48.312;14.226;2023-02-21T05:17:08;5.37;;;2.30;;
75441;SDS011;64019;48.312;14.226;2023-02-21T05:19:34;3.70;;;2.10;;
75441;SDS011;64019;48.312;14.226;2023-02-21T05:22:01;4.07;;;2.20;;
75441;SDS011;64019;48.312;14.226;2023-02-21T05:24:28;6.13;;;1.93;;
75441;SDS011;64019;48.312;14.226;2023-02-21T05:26:54;3.53;;;1.80;;
75441;SDS011;64019;48.312;14.226;2023-02-21T05:29:21;3.57;;;2.27;;
75441;SDS011;64019;48.312;14.226;2023-02-21T05:31:47;4.37;;;2.30;;
75441;SDS011;64019;48.312;14.226;2023-02-21T05:34:13;3.50;;;2.57;;
75441;SDS011;64019;48.312;14.226;2023-02-21T05:36:39;6.93;;;2.23;;
75441;SDS011;64019;48.312;14.226;2023-02-21T05:39:06;8.00;;;2.03;;
75441;SDS011;64019;48.312;14.226;2023-02-21T05:41:32;5.27;;;2.67;;
75441;SDS011;64019;48.312;14.226;2023-02-21T05:43:59;4.77;;;2.40;;
75441;SDS011;64019;48.312;14.226;2023-02-21T05:46:30;7.30;;;2.47;;
75441;SDS011;64019;48.312;14.226;2023-02-21T05:48:59;6.67;;;2.30;;
75441;SDS011;64019;48.312;14.226;2023-02-21T05:51:26;5.67;;;2.27;;
75441;SDS011;64019;48.312;14.226;2023-02-21T05:53:57;4.07;;;2.47;;
75441;SDS011;64019;48.312;14.226;2023-02-21T05:56:23;7.13;;;2.30;;
75441;SDS011;64019;48.312;14.226;2023-02-21T05:58:48;5.40;;;2.93;;
75441;SDS011;64019;48.312;14.226;2023-02-21T06:01:14;4.73;;;2.50;;
75441;SDS011;64019;48.312;14.226;2023-02-21T06:03:40;4.87;;;2.30;;
75441;SDS011;64019;48.312;14.226;2023-02-21T06:06:05;6.00;;;2.60;;
75441;SDS011;64019;48.312;14.226;2023-02-21T06:08:31;9.07;;;2.30;;
75441;SDS011;64019;48.312;14.226;2023-02-21T06:10:57;5.30;;;2.67;;
75441;SDS011;64019;48.312;14.226;2023-02-21T06:13:22;5.30;;;2.87;;
75441;SDS011;64019;48.312;14.226;2023-02-21T06:15:48;4.83;;;2.70;;
75441;SDS011;64019;48.312;14.226;2023-02-21T06:18:14;5.03;;;2.63;;
75441;SDS011;64019;48.312;14.226;2023-02-21T06:20:40;4.37;;;2.43;;
75441;SDS011;64019;48.312;14.226;2023-02-21T06:23:06;7.43;;;2.70;;
75441;SDS011;64019;48.312;14.226;2023-02-21T06:25:31;9.60;;;2.97;;
75441;SDS011;64019;48.312;14.226;2023-02-21T06:27:57;7.10;;;2.87;;
75441;SDS011;64019;48.312;14.226;2023-02-21T06:30:23;5.30;;;2.73;;
75441;SDS011;64019;48.312;14.226;2023-02-21T06:32:49;4.57;;;2.50;;
75441;SDS011;64019;48.312;14.226;2023-02-21T06:35:15;7.70;;;2.53;;
75441;SDS011;64019;48.312;14.226;2023-02-21T06:37:40;8.37;;;2.80;;
75441;SDS011;64019;48.312;14.226;2023-02-21T06:40:06;7.03;;;2.70;;
75441;SDS011;64019;48.312;14.226;2023-02-21T06:42:33;5.50;;;2.63;;
75441;SDS011;64019;48.312;14.226;2023-02-21T06:44:58;4.43;;;2.77;;
75441;SDS011;64019;48.312;14.226;2023-02-21T06:47:24;7.37;;;3.07;;
75441;SDS011;64019;48.312;14.226;2023-02-21T06:49:50;5.63;;;3.13;;
75441;SDS011;64019;48.312;14.226;2023-02-21T06:52:15;7.07;;;3.10;;
75441;SDS011;64019;48.312;14.226;2023-02-21T06:54:41;5.37;;;3.00;;
75441;SDS011;64019;48.312;14.226;2023-02-21T06:57:07;6.97;;;3.20;;
75441;SDS011;64019;48.312;14.226;2023-02-21T06:59:32;3.53;;;2.50;;
75441;SDS011;64019;48.312;14.226;2023-02-21T07:01:58;7.27;;;2.80;;
75441;SDS011;64019;48.312;14.226;2023-02-21T07:04:24;4.67;;;2.97;;
75441;SDS011;64019;48.312;14.226;2023-02-21T07:06:50;7.10;;;3.17;;
75441;SDS011;64019;48.312;14.226;2023-02-21T07:09:16;5.70;;;2.60;;
75441;SDS011;64019;48.312;14.226;2023-02-21T07:11:42;8.27;;;2.53;;
75441;SDS011;64019;48.312;14.226;2023-02-21T07:14:08;10.43;;;3.60;;
75441;SDS011;64019;48.312;14.226;2023-02-21T07:16:35;6.97;;;2.97;;
75441;SDS011;64019;48.312;14.226;2023-02-21T07:19:00;6.83;;;2.67;;
75441;SDS011;64019;48.312;14.226;2023-02-21T07:21:26;5.80;;;2.90;;
75441;SDS011;64019;48.312;14.226;2023-02-21T07:23:52;7.37;;;3.00;;
75441;SDS011;64019;48.312;14.226;2023-02-21T07:26:18;6.40;;;2.90;;
75441;SDS011;64019;48.312;14.226;2023-02-21T07:28:46;5.80;;;3.00;;
75441;SDS011;64019;48.312;14.226;2023-02-21T07:31:13;8.83;;;2.93;;
75441;SDS011;64019;48.312;14.226;2023-02-21T07:33:39;3.00;;;2.40;;
75441;SDS011;64019;48.312;14.226;2023-02-21T07:36:04;4.73;;;2.43;;
75441;SDS011;64019;48.312;14.226;2023-02-21T07:38:30;9.47;;;3.27;;
75441;SDS011;64019;48.312;14.226;2023-02-21T07:40:57;6.43;;;2.77;;
75441;SDS011;64019;48.312;14.226;2023-02-21T07:43:24;4.20;;;2.57;;
75441;SDS011;64019;48.312;14.226;2023-02-21T07:45:51;6.33;;;2.63;;
75441;SDS011;64019;48.312;14.226;2023-02-21T07:48:17;3.77;;;2.20;;
75441;SDS011;64019;48.312;14.226;2023-02-21T07:50:42;6.27;;;2.63;;
75441;SDS011;64019;48.312;14.226;2023-02-21T07:53:09;4.03;;;2.47;;
75441;SDS011;64019;48.312;14.226;2023-02-21T07:55:35;4.70;;;2.30;;
75441;SDS011;64019;48.312;14.226;2023-02-21T07:58:01;7.10;;;2.67;;
75441;SDS011;64019;48.312;14.226;2023-02-21T08:00:27;7.67;;;3.40;;
75441;SDS011;64019;48.312;14.226;2023-02-21T08:02:53;3.20;;;2.13;;
75441;SDS011;64019;48.312;14.226;2023-02-21T08:05:19;8.80;;;2.90;;
75441;SDS011;64019;48.312;14.226;2023-02-21T08:07:46;4.33;;;2.67;;
75441;SDS011;64019;48.312;14.226;2023-02-21T08:10:12;8.00;;;3.07;;
75441;SDS011;64019;48.312;14.226;2023-02-21T08:12:44;6.40;;;2.77;;
75441;SDS011;64019;48.312;14.226;2023-02-21T08:15:09;11.40;;;3.67;;
75441;SDS011;64019;48.312;14.226;2023-02-21T08:17:35;9.33;;;3.10;;
75441;SDS011;64019;48.312;14.226;2023-02-21T08:20:02;6.27;;;3.63;;
75441;SDS011;64019;48.312;14.226;2023-02-21T08:22:29;7.10;;;3.23;;
75441;SDS011;64019;48.312;14.226;2023-02-21T08:24:54;9.87;;;3.40;;
75441;SDS011;64019;48.312;14.226;2023-02-21T08:27:20;8.83;;;3.27;;
75441;SDS011;64019;48.312;14.226;2023-02-21T08:29:48;6.50;;;3.10;;
75441;SDS011;64019;48.312;14.226;2023-02-21T08:32:15;6.17;;;3.50;;
75441;SDS011;64019;48.312;14.226;2023-02-21T08:34:43;13.00;;;3.80;;
75441;SDS011;64019;48.312;14.226;2023-02-21T08:37:10;6.53;;;2.90;;
75441;SDS011;64019;48.312;14.226;2023-02-21T08:39:44;7.30;;;3.50;;
75441;SDS011;64019;48.312;14.226;2023-02-21T08:42:14;7.27;;;3.17;;
75441;SDS011;64019;48.312;14.226;2023-02-21T08:44:44;5.90;;;3.23;;
75441;SDS011;64019;48.312;14.226;2023-02-21T08:47:11;6.20;;;3.17;;
75441;SDS011;64019;48.312;14.226;2023-02-21T08:49:37;8.00;;;3.53;;
75441;SDS011;64019;48.312;14.226;2023-02-21T08:52:05;6.93;;;3.73;;
75441;SDS011;64019;48.312;14.226;2023-02-21T08:54:31;17.50;;;5.33;;
75441;SDS011;64019;48.312;14.226;2023-02-21T08:56:57;11.53;;;3.93;;
75441;SDS011;64019;48.312;14.226;2023-02-21T08:59:23;6.83;;;3.57;;
75441;SDS011;64019;48.312;14.226;2023-02-21T09:01:49;6.63;;;3.50;;
75441;SDS011;64019;48.312;14.226;2023-02-21T09:04:15;9.97;;;3.23;;
75441;SDS011;64019;48.312;14.226;2023-02-21T09:06:41;9.90;;;3.03;;
75441;SDS011;64019;48.312;14.226;2023-02-21T09:09:06;7.70;;;3.17;;
75441;SDS011;64019;48.312;14.226;2023-02-21T09:11:32;4.93;;;3.10;;
75441;SDS011;64019;48.312;14.226;2023-02-21T09:13:58;6.33;;;2.80;;
75441;SDS011;64019;48.312;14.226;2023-02-21T09:16:23;5.63;;;2.53;;
75441;SDS011;64019;48.312;14.226;2023-02-21T09:18:56;6.97;;;2.90;;
75441;SDS011;64019;48.312;14.226;2023-02-21T09:21:23;6.73;;;2.70;;
75441;SDS011;64019;48.312;14.226;2023-02-21T09:23:53;6.37;;;2.40;;
75441;SDS011;64019;48.312;14.226;2023-02-21T09:26:20;3.30;;;2.23;;
75441;SDS011;64019;48.312;14.226;2023-02-21T09:28:48;3.00;;;1.70;;
75441;SDS011;64019;48.312;14.226;2023-02-21T09:31:14;5.93;;;1.30;;
75441;SDS011;64019;48.312;14.226;2023-02-21T09:33:40;3.13;;;1.50;;
75441;SDS011;64019;48.312;14.226;2023-02-21T09:36:09;1.70;;;1.37;;
75441;SDS011;64019;48.312;14.226;2023-02-21T09:38:35;2.50;;;1.50;;
75441;SDS011;64019;48.312;14.226;2023-02-21T09:41:01;2.40;;;1.40;;
75441;SDS011;64019;48.312;14.226;2023-02-21T09:43:36;2.33;;;1.80;;
75441;SDS011;64019;48.312;14.226;2023-02-21T09:46:04;2.17;;;1.53;;
75441;SDS011;64019;48.312;14.226;2023-02-21T09:48:36;2.30;;;1.40;;
75441;SDS011;64019;48.312;14.226;2023-02-21T09:51:05;3.07;;;1.30;;
75441;SDS011;64019;48.312;14.226;2023-02-21T09:53:34;4.67;;;1.60;;
75441;SDS011;64019;48.312;14.226;2023-02-21T09:56:05;2.37;;;1.20;;
75441;SDS011;64019;48.312;14.226;2023-02-21T09:58:52;5.07;;;1.30;;
75441;SDS011;64019;48.312;14.226;2023-02-21T10:06:48;2.30;;;1.40;;
75441;SDS011;64019;48.312;14.226;2023-02-21T10:12:19;3.63;;;1.30;;
75441;SDS011;64019;48.312;14.226;2023-02-21T10:20:54;3.67;;;1.63;;
75441;SDS011;64019;48.312;14.226;2023-02-21T10:26:12;9.83;;;2.23;;
75441;SDS011;64019;48.312;14.226;2023-02-21T10:28:42;4.50;;;1.80;;
75441;SDS011;64019;48.312;14.226;2023-02-21T10:31:11;3.43;;;2.43;;
75441;SDS011;64019;48.312;14.226;2023-02-21T10:33:42;6.27;;;1.93;;
75441;SDS011;64019;48.312;14.226;2023-02-21T10:36:20;2.73;;;1.87;;
75441;SDS011;64019;48.312;14.226;2023-02-21T10:38:57;4.13;;;2.20;;
75441;SDS011;64019;48.312;14.226;2023-02-21T10:41:28;3.53;;;2.40;;
75441;SDS011;64019;48.312;14.226;2023-02-21T10:47:00;7.03;;;2.47;;
75441;SDS011;64019;48.312;14.226;2023-02-21T10:49:39;4.80;;;2.53;;
75441;SDS011;64019;48.312;14.226;2023-02-21T10:52:13;5.33;;;2.50;;
75441;SDS011;64019;48.312;14.226;2023-02-21T10:54:41;7.83;;;2.17;;
75441;SDS011;64019;48.312;14.226;2023-02-21T10:57:23;6.77;;;2.37;;
75441;SDS011;64019;48.312;14.226;2023-02-21T10:59:49;6.27;;;2.37;;
75441;SDS011;64019;48.312;14.226;2023-02-21T11:02:24;5.73;;;2.60;;
75441;SDS011;64019;48.312;14.226;2023-02-21T11:04:54;5.30;;;2.27;;
75441;SDS011;64019;48.312;14.226;2023-02-21T11:07:21;6.10;;;2.57;;
75441;SDS011;64019;48.312;14.226;2023-02-21T11:09:48;8.37;;;2.50;;
75441;SDS011;64019;48.312;14.226;2023-02-21T11:14:40;4.00;;;2.40;;
75441;SDS011;64019;48.312;14.226;2023-02-21T11:17:23;4.33;;;1.93;;
75441;SDS011;64019;48.312;14.226;2023-02-21T11:19:50;3.77;;;1.80;;
75441;SDS011;64019;48.312;14.226;2023-02-21T11:22:18;6.43;;;2.00;;
75441;SDS011;64019;48.312;14.226;2023-02-21T11:28:05;2.50;;;1.53;;
75441;SDS011;64019;48.312;14.226;2023-02-21T11:30:35;6.77;;;2.33;;
75441;SDS011;64019;48.312;14.226;2023-02-21T11:33:03;2.93;;;1.97;;
75441;SDS011;64019;48.312;14.226;2023-02-21T11:35:32;7.80;;;2.07;;
75441;SDS011;64019;48.312;14.226;2023-02-21T11:38:06;7.87;;;2.47;;
75441;SDS011;64019;48.312;14.226;2023-02-21T11:40:52;3.90;;;2.10;;
75441;SDS011;64019;48.312;14.226;2023-02-21T11:48:47;8.40;;;2.73;;
75441;SDS011;64019;48.312;14.226;2023-02-21T11:54:11;6.50;;;1.90;;
75441;SDS011;64019;48.312;14.226;2023-02-21T12:21:49;2.60;;;1.57;;
75441;SDS011;64019;48.312;14.226;2023-02-21T12:27:30;5.00;;;1.67;;
75441;SDS011;64019;48.312;14.226;2023-02-21T12:35:45;2.50;;;1.33;;
75441;SDS011;64019;48.312;14.226;2023-02-21T12:38:30;6.30;;;1.50;;
75441;SDS011;64019;48.312;14.226;2023-02-21T12:46:22;2.57;;;1.40;;
75441;SDS011;64019;48.312;14.226;2023-02-21T12:49:02;2.60;;;1.60;;
75441;SDS011;64019;48.312;14.226;2023-02-21T12:54:48;3.60;;;1.60;;
75441;SDS011;64019;48.312;14.226;2023-02-21T12:57:42;2.70;;;1.67;;
75441;SDS011;64019;48.312;14.226;2023-02-21T13:00:24;3.27;;;1.83;;
75441;SDS011;64019;48.312;14.226;2023-02-21T13:03:22;2.27;;;1.70;;
75441;SDS011;64019;48.312;14.226;2023-02-21T13:06:11;2.73;;;1.50;;
75441;SDS011;64019;48.312;14.226;2023-02-21T13:08:51;5.93;;;1.87;;
75441;SDS011;64019;48.312;14.226;2023-02-21T13:14:23;2.70;;;1.57;;
75441;SDS011;64019;48.312;14.226;2023-02-21T13:16:52;3.27;;;1.80;;
75441;SDS011;64019;48.312;14.226;2023-02-21T13:19:18;3.33;;;1.47;;
75441;SDS011;64019;48.312;14.226;2023-02-21T13:21:49;3.03;;;1.53;;
75441;SDS011;64019;48.312;14.226;2023-02-21T13:24:40;2.53;;;1.47;;
75441;SDS011;64019;48.312;14.226;2023-02-21T13:27:31;2.00;;;1.30;;
75441;SDS011;64019;48.312;14.226;2023-02-21T13:32:57;4.23;;;1.73;;
75441;SDS011;64019;48.312;14.226;2023-02-21T13:35:31;2.67;;;1.40;;
75441;SDS011;64019;48.312;14.226;2023-02-21T13:38:01;3.20;;;1.43;;
75441;SDS011;64019;48.312;14.226;2023-02-21T13:40:34;3.87;;;1.67;;
75441;SDS011;64019;48.312;14.226;2023-02-21T13:43:02;3.63;;;1.33;;
75441;SDS011;64019;48.312;14.226;2023-02-21T13:45:45;3.20;;;1.43;;
75441;SDS011;64019;48.312;14.226;2023-02-21T13:48:18;2.37;;;1.53;;
75441;SDS011;64019;48.312;14.226;2023-02-21T13:50:53;2.30;;;1.30;;
75441;SDS011;64019;48.312;14.226;2023-02-21T13:56:49;3.23;;;1.23;;
75441;SDS011;64019;48.312;14.226;2023-02-21T13:59:36;2.57;;;1.70;;
75441;SDS011;64019;48.312;14.226;2023-02-21T14:02:20;5.77;;;1.53;;
75441;SDS011;64019;48.312;14.226;2023-02-21T14:04:57;2.47;;;1.60;;
75441;SDS011;64019;48.312;14.226;2023-02-21T14:07:41;3.37;;;1.30;;
75441;SDS011;64019;48.312;14.226;2023-02-21T14:12:57;2.20;;;1.20;;
75441;SDS011;64019;48.312;14.226;2023-02-21T14:15:36;2.63;;;1.50;;
75441;SDS011;64019;48.312;14.226;2023-02-21T14:21:25;1.80;;;1.30;;
75441;SDS011;64019;48.312;14.226;2023-02-21T14:26:34;2.03;;;1.23;;
75441;SDS011;64019;48.312;14.226;2023-02-21T14:30:13;2.53;;;1.23;;
75441;SDS011;64019;48.312;14.226;2023-02-21T14:31:55;2.40;;;1.27;;
75441;SDS011;64019;48.312;14.226;2023-02-21T14:34:32;2.57;;;1.20;;
75441;SDS011;64019;48.312;14.226;2023-02-21T14:37:14;1.57;;;1.00;;
75441;SDS011;64019;48.312;14.226;2023-02-21T14:39:50;2.50;;;1.40;;
75441;SDS011;64019;48.312;14.226;2023-02-21T14:47:32;2.53;;;1.40;;
75441;SDS011;64019;48.312;14.226;2023-02-21T14:55:30;2.13;;;1.40;;
75441;SDS011;64019;48.312;14.226;2023-02-21T15:03:15;2.30;;;1.47;;
75441;SDS011;64019;48.312;14.226;2023-02-21T15:05:53;2.00;;;1.17;;
75441;SDS011;64019;48.312;14.226;2023-02-21T15:08:26;1.90;;;1.30;;
75441;SDS011;64019;48.312;14.226;2023-02-21T15:10:53;3.27;;;1.27;;
75441;SDS011;64019;48.312;14.226;2023-02-21T15:13:30;3.00;;;1.43;;
75441;SDS011;64019;48.312;14.226;2023-02-21T15:15:58;2.70;;;1.33;;
75441;SDS011;64019;48.312;14.226;2023-02-21T15:18:35;2.63;;;1.50;;
75441;SDS011;64019;48.312;14.226;2023-02-21T15:21:04;4.07;;;1.33;;
75441;SDS011;64019;48.312;14.226;2023-02-21T15:23:37;1.83;;;1.13;;
75441;SDS011;64019;48.312;14.226;2023-02-21T15:29:04;3.20;;;1.20;;
75441;SDS011;64019;48.312;14.226;2023-02-21T15:31:35;1.50;;;1.20;;
75441;SDS011;64019;48.312;14.226;2023-02-21T15:34:21;2.20;;;1.20;;
75441;SDS011;64019;48.312;14.226;2023-02-21T15:36:53;1.50;;;1.20;;
75441;SDS011;64019;48.312;14.226;2023-02-21T15:39:34;1.57;;;1.03;;
75441;SDS011;64019;48.312;14.226;2023-02-21T15:42:03;2.30;;;1.03;;
75441;SDS011;64019;48.312;14.226;2023-02-21T15:44:32;1.50;;;1.10;;
75441;SDS011;64019;48.312;14.226;2023-02-21T15:49:44;1.57;;;1.10;;
75441;SDS011;64019;48.312;14.226;2023-02-21T15:52:39;2.13;;;1.30;;
75441;SDS011;64019;48.312;14.226;2023-02-21T15:57:57;2.87;;;1.17;;
75441;SDS011;64019;48.312;14.226;2023-02-21T16:00:30;3.13;;;1.27;;
75441;SDS011;64019;48.312;14.226;2023-02-21T16:08:48;2.53;;;1.50;;
75441;SDS011;64019;48.312;14.226;2023-02-21T16:11:17;5.13;;;1.30;;
75441;SDS011;64019;48.312;14.226;2023-02-21T16:13:44;2.13;;;1.30;;
75441;SDS011;64019;48.312;14.226;2023-02-21T16:16:10;5.80;;;1.60;;
75441;SDS011;64019;48.312;14.226;2023-02-21T16:18:36;3.73;;;1.27;;
75441;SDS011;64019;48.312;14.226;2023-02-21T16:21:06;4.30;;;1.50;;
75441;SDS011;64019;48.312;14.226;2023-02-21T16:23:44;2.97;;;1.60;;
75441;SDS011;64019;48.312;14.226;2023-02-21T16:28:42;3.53;;;1.27;;
75441;SDS011;64019;48.312;14.226;2023-02-21T16:31:13;4.10;;;1.10;;
75441;SDS011;64019;48.312;14.226;2023-02-21T16:33:54;4.50;;;1.50;;
75441;SDS011;64019;48.312;14.226;2023-02-21T16:36:27;3.93;;;1.00;;
75441;SDS011;64019;48.312;14.226;2023-02-21T16:38:54;5.50;;;1.40;;
75441;SDS011;64019;48.312;14.226;2023-02-21T16:41:21;2.63;;;1.53;;
75441;SDS011;64019;48.312;14.226;2023-02-21T16:43:47;1.97;;;1.20;;
75441;SDS011;64019;48.312;14.226;2023-02-21T16:46:13;4.67;;;1.77;;
75441;SDS011;64019;48.312;14.226;2023-02-21T16:48:39;1.30;;;1.20;;
75441;SDS011;64019;48.312;14.226;2023-02-21T16:51:10;2.80;;;1.50;;
75441;SDS011;64019;48.312;14.226;2023-02-21T16:53:40;6.13;;;1.47;;
75441;SDS011;64019;48.312;14.226;2023-02-21T16:56:06;3.20;;;1.20;;
75441;SDS011;64019;48.312;14.226;2023-02-21T16:58:33;2.63;;;1.23;;
75441;SDS011;64019;48.312;14.226;2023-02-21T17:01:04;2.53;;;1.20;;
75441;SDS011;64019;48.312;14.226;2023-02-21T17:03:41;1.60;;;0.83;;
75441;SDS011;64019;48.312;14.226;2023-02-21T17:06:07;8.27;;;1.40;;
75441;SDS011;64019;48.312;14.226;2023-02-21T17:08:40;3.50;;;1.47;;
75441;SDS011;64019;48.312;14.226;2023-02-21T17:11:06;4.03;;;1.87;;
75441;SDS011;64019;48.312;14.226;2023-02-21T17:13:32;1.73;;;1.20;;
75441;SDS011;64019;48.312;14.226;2023-02-21T17:15:57;1.60;;;1.10;;
75441;SDS011;64019;48.312;14.226;2023-02-21T17:18:23;5.60;;;1.50;;
75441;SDS011;64019;48.312;14.226;2023-02-21T17:20:51;6.30;;;1.43;;
75441;SDS011;64019;48.312;14.226;2023-02-21T17:23:17;4.67;;;1.57;;
75441;SDS011;64019;48.312;14.226;2023-02-21T17:25:42;3.90;;;1.27;;
75441;SDS011;64019;48.312;14.226;2023-02-21T17:28:08;3.43;;;1.60;;
75441;SDS011;64019;48.312;14.226;2023-02-21T17:30:34;2.60;;;1.60;;
75441;SDS011;64019;48.312;14.226;2023-02-21T17:32:59;6.50;;;1.53;;
75441;SDS011;64019;48.312;14.226;2023-02-21T17:35:25;2.77;;;1.80;;
75441;SDS011;64019;48.312;14.226;2023-02-21T17:37:52;2.23;;;1.70;;
75441;SDS011;64019;48.312;14.226;2023-02-21T17:40:18;3.00;;;1.80;;